sensor_id;sensor_type;location;lat;lon;timestamp;temperature;humidity
73939;DHT22;62291;47.554;8.504;2023-11-18T00:01:50;4.10;99.90
73939;DHT22;62291;47.554;8.504;2023-11-18T00:04:16;4.00;99.90
73939;DHT22;62291;47.554;8.504;2023-11-18T00:06:42;4.00;99.90
73939;DHT22;62291;47.554;8.504;2023-11-18T00:09:11;4.00;99.90
73939;DHT22;62291;47.554;8.504;2023-11-18T00:11:41;4.00;99.90
73939;DHT22;62291;47.554;8.504;2023-11-18T00:14:08;4.00;99.90
73939;DHT22;62291;47.554;8.504;2023-11-18T00:16:34;3.90;99.90
73939;DHT22;62291;47.554;8.504;2023-11-18T00:19:00;4.00;99.90
73939;DHT22;62291;47.554;8.504;2023-11-18T00:21:27;4.00;99.90
73939;DHT22;62291;47.554;8.504;2023-11-18T00:23:53;4.00;99.90
73939;DHT22;62291;47.554;8.504;2023-11-18T00:26:21;4.00;99.90
73939;DHT22;62291;47.554;8.504;2023-11-18T00:28:47;3.90;99.90
73939;DHT22;62291;47.554;8.504;2023-11-18T00:31:14;3.90;99.90
73939;DHT22;62291;47.554;8.504;2023-11-18T00:33:40;3.80;99.90
73939;DHT22;62291;47.554;8.504;2023-11-18T00:36:06;3.70;99.90
73939;DHT22;62291;47.554;8.504;2023-11-18T00:38:32;3.70;99.90
73939;DHT22;62291;47.554;8.504;2023-11-18T00:40:58;3.70;99.90
73939;DHT22;62291;47.554;8.504;2023-11-18T00:43:24;3.60;99.90
73939;DHT22;62291;47.554;8.504;2023-11-18T00:45:49;3.60;99.90
73939;DHT22;62291;47.554;8.504;2023-11-18T00:48:16;3.50;99.90
73939;DHT22;62291;47.554;8.504;2023-11-18T00:50:42;3.50;99.90
73939;DHT22;62291;47.554;8.504;2023-11-18T00:53:08;3.60;99.90
73939;DHT22;62291;47.554;8.504;2023-11-18T00:55:35;3.50;99.90
73939;DHT22;62291;47.554;8.504;2023-11-18T00:58:01;3.50;99.90
73939;DHT22;62291;47.554;8.504;2023-11-18T01:00:30;3.50;99.90
73939;DHT22;62291;47.554;8.504;2023-11-18T01:02:55;3.50;99.90
73939;DHT22;62291;47.554;8.504;2023-11-18T01:05:22;3.50;99.90
73939;DHT22;62291;47.554;8.504;2023-11-18T01:07:47;3.50;99.90
73939;DHT22;62291;47.554;8.504;2023-11-18T01:10:13;3.50;99.90
73939;DHT22;62291;47.554;8.504;2023-11-18T01:12:40;3.50;99.90
73939;DHT22;62291;47.554;8.504;2023-11-18T01:15:07;3.60;99.90
73939;DHT22;62291;47.554;8.504;2023-11-18T01:17:35;3.60;99.90
73939;DHT22;62291;47.554;8.504;2023-11-18T01:20:02;3.70;99.90
73939;DHT22;62291;47.554;8.504;2023-11-18T01:22:34;3.80;99.90
73939;DHT22;62291;47.554;8.504;2023-11-18T01:25:00;3.90;99.90
73939;DHT22;62291;47.554;8.504;2023-11-18T01:27:26;4.00;99.90
73939;DHT22;62291;47.554;8.504;2023-11-18T01:29:52;4.00;99.90
73939;DHT22;62291;47.554;8.504;2023-11-18T01:32:18;4.00;99.90
73939;DHT22;62291;47.554;8.504;2023-11-18T01:34:44;4.00;99.90
73939;DHT22;62291;47.554;8.504;2023-11-18T01:37:16;3.90;99.90
73939;DHT22;62291;47.554;8.504;2023-11-18T01:39:41;3.90;99.90
73939;DHT22;62291;47.554;8.504;2023-11-18T01:42:07;3.70;99.90
73939;DHT22;62291;47.554;8.504;2023-11-18T01:44:33;3.60;99.90
73939;DHT22;62291;47.554;8.504;2023-11-18T01:47:02;3.50;99.90
73939;DHT22;62291;47.554;8.504;2023-11-18T01:49:32;3.40;99.90
73939;DHT22;62291;47.554;8.504;2023-11-18T01:52:00;3.40;99.90
73939;DHT22;62291;47.554;8.504;2023-11-18T01:54:27;3.30;99.90
73939;DHT22;62291;47.554;8.504;2023-11-18T01:56:54;3.20;99.90
73939;DHT22;62291;47.554;8.504;2023-11-18T01:59:20;3.20;99.90
73939;DHT22;62291;47.554;8.504;2023-11-18T02:01:49;3.10;99.90
73939;DHT22;62291;47.554;8.504;2023-11-18T02:04:15;3.10;99.90
73939;DHT22;62291;47.554;8.504;2023-11-18T02:06:42;3.00;99.90
73939;DHT22;62291;47.554;8.504;2023-11-18T02:09:11;3.00;99.90
73939;DHT22;62291;47.554;8.504;2023-11-18T02:11:45;3.00;99.90
73939;DHT22;62291;47.554;8.504;2023-11-18T02:14:18;3.00;99.90
73939;DHT22;62291;47.554;8.504;2023-11-18T02:16:48;3.00;99.90
73939;DHT22;62291;47.554;8.504;2023-11-18T02:19:20;2.90;99.90
73939;DHT22;62291;47.554;8.504;2023-11-18T02:21:47;2.90;99.90
73939;DHT22;62291;47.554;8.504;2023-11-18T02:24:31;2.90;99.90
73939;DHT22;62291;47.554;8.504;2023-11-18T02:27:00;2.80;99.90
73939;DHT22;62291;47.554;8.504;2023-11-18T02:29:27;2.80;99.90
73939;DHT22;62291;47.554;8.504;2023-11-18T02:31:59;2.80;99.90
73939;DHT22;62291;47.554;8.504;2023-11-18T02:34:30;2.70;99.90
73939;DHT22;62291;47.554;8.504;2023-11-18T02:36:58;2.70;99.90
73939;DHT22;62291;47.554;8.504;2023-11-18T02:39:38;2.60;99.90
73939;DHT22;62291;47.554;8.504;2023-11-18T02:42:07;2.60;99.90
73939;DHT22;62291;47.554;8.504;2023-11-18T02:44:35;2.60;99.90
73939;DHT22;62291;47.554;8.504;2023-11-18T02:47:02;2.60;99.90
73939;DHT22;62291;47.554;8.504;2023-11-18T02:49:30;2.50;99.90
73939;DHT22;62291;47.554;8.504;2023-11-18T02:51:56;2.50;99.90
73939;DHT22;62291;47.554;8.504;2023-11-18T02:54:22;2.40;99.90
73939;DHT22;62291;47.554;8.504;2023-11-18T02:56:48;2.40;99.90
73939;DHT22;62291;47.554;8.504;2023-11-18T02:59:17;2.30;99.90
73939;DHT22;62291;47.554;8.504;2023-11-18T03:01:43;2.20;99.90
73939;DHT22;62291;47.554;8.504;2023-11-18T03:04:10;2.20;99.90
73939;DHT22;62291;47.554;8.504;2023-11-18T03:06:35;2.10;99.90
73939;DHT22;62291;47.554;8.504;2023-11-18T03:09:02;2.10;99.90
73939;DHT22;62291;47.554;8.504;2023-11-18T03:11:28;2.10;99.90
73939;DHT22;62291;47.554;8.504;2023-11-18T03:13:56;2.10;99.90
73939;DHT22;62291;47.554;8.504;2023-11-18T03:16:23;2.20;99.90
73939;DHT22;62291;47.554;8.504;2023-11-18T03:18:50;2.20;99.90
73939;DHT22;62291;47.554;8.504;2023-11-18T03:21:16;2.20;99.90
73939;DHT22;62291;47.554;8.504;2023-11-18T03:23:42;2.00;99.90
73939;DHT22;62291;47.554;8.504;2023-11-18T03:26:09;2.00;99.90
73939;DHT22;62291;47.554;8.504;2023-11-18T03:28:36;2.00;99.90
73939;DHT22;62291;47.554;8.504;2023-11-18T03:31:05;2.00;99.90
73939;DHT22;62291;47.554;8.504;2023-11-18T03:33:31;2.00;99.90
73939;DHT22;62291;47.554;8.504;2023-11-18T03:35:57;2.00;99.90
73939;DHT22;62291;47.554;8.504;2023-11-18T03:38:23;2.00;99.90
73939;DHT22;62291;47.554;8.504;2023-11-18T03:40:50;1.90;99.90
73939;DHT22;62291;47.554;8.504;2023-11-18T03:43:17;1.90;99.90
73939;DHT22;62291;47.554;8.504;2023-11-18T03:45:43;1.80;99.90
73939;DHT22;62291;47.554;8.504;2023-11-18T03:48:09;1.80;99.90
73939;DHT22;62291;47.554;8.504;2023-11-18T03:50:39;1.90;99.90
73939;DHT22;62291;47.554;8.504;2023-11-18T03:53:05;1.80;99.90
73939;DHT22;62291;47.554;8.504;2023-11-18T03:55:31;1.80;99.90
73939;DHT22;62291;47.554;8.504;2023-11-18T03:57:56;1.80;99.90
73939;DHT22;62291;47.554;8.504;2023-11-18T04:00:22;1.80;99.90
73939;DHT22;62291;47.554;8.504;2023-11-18T04:03:04;1.80;99.90
73939;DHT22;62291;47.554;8.504;2023-11-18T04:05:32;1.70;99.90
73939;DHT22;62291;47.554;8.504;2023-11-18T04:07:57;1.70;99.90
73939;DHT22;62291;47.554;8.504;2023-11-18T04:10:23;1.60;99.90
73939;DHT22;62291;47.554;8.504;2023-11-18T04:12:49;1.60;99.90
73939;DHT22;62291;47.554;8.504;2023-11-18T04:15:15;1.60;99.90
73939;DHT22;62291;47.554;8.504;2023-11-18T04:17:43;1.60;99.90
73939;DHT22;62291;47.554;8.504;2023-11-18T04:20:10;1.60;99.90
73939;DHT22;62291;47.554;8.504;2023-11-18T04:22:43;1.70;99.90
73939;DHT22;62291;47.554;8.504;2023-11-18T04:25:10;1.70;99.90
73939;DHT22;62291;47.554;8.504;2023-11-18T04:27:39;1.80;99.90
73939;DHT22;62291;47.554;8.504;2023-11-18T04:30:06;1.90;99.90
73939;DHT22;62291;47.554;8.504;2023-11-18T04:32:32;1.90;99.90
73939;DHT22;62291;47.554;8.504;2023-11-18T04:34:59;2.00;99.90
73939;DHT22;62291;47.554;8.504;2023-11-18T04:37:25;2.00;99.90
73939;DHT22;62291;47.554;8.504;2023-11-18T04:39:51;2.10;99.90
73939;DHT22;62291;47.554;8.504;2023-11-18T04:42:17;2.20;99.90
73939;DHT22;62291;47.554;8.504;2023-11-18T04:44:43;2.20;99.90
73939;DHT22;62291;47.554;8.504;2023-11-18T04:47:09;2.30;99.90
73939;DHT22;62291;47.554;8.504;2023-11-18T04:49:36;2.30;99.90
73939;DHT22;62291;47.554;8.504;2023-11-18T04:52:02;2.40;99.90
73939;DHT22;62291;47.554;8.504;2023-11-18T04:54:28;2.40;99.90
73939;DHT22;62291;47.554;8.504;2023-11-18T04:56:53;2.40;99.90
73939;DHT22;62291;47.554;8.504;2023-11-18T04:59:19;2.40;99.90
73939;DHT22;62291;47.554;8.504;2023-11-18T05:01:46;2.50;99.90
73939;DHT22;62291;47.554;8.504;2023-11-18T05:04:12;2.50;99.90
73939;DHT22;62291;47.554;8.504;2023-11-18T05:06:38;2.60;99.90
73939;DHT22;62291;47.554;8.504;2023-11-18T05:09:04;2.60;99.90
73939;DHT22;62291;47.554;8.504;2023-11-18T05:11:33;2.60;99.90
73939;DHT22;62291;47.554;8.504;2023-11-18T05:13:59;2.70;99.90
73939;DHT22;62291;47.554;8.504;2023-11-18T05:16:24;2.70;99.90
73939;DHT22;62291;47.554;8.504;2023-11-18T05:18:50;2.80;99.90
73939;DHT22;62291;47.554;8.504;2023-11-18T05:21:16;2.80;99.90
73939;DHT22;62291;47.554;8.504;2023-11-18T05:23:41;2.80;99.90
73939;DHT22;62291;47.554;8.504;2023-11-18T05:26:07;2.80;99.90
73939;DHT22;62291;47.554;8.504;2023-11-18T05:28:34;2.90;99.90
73939;DHT22;62291;47.554;8.504;2023-11-18T05:31:00;2.80;99.90
73939;DHT22;62291;47.554;8.504;2023-11-18T05:33:27;2.80;99.90
73939;DHT22;62291;47.554;8.504;2023-11-18T05:35:54;2.80;99.90
73939;DHT22;62291;47.554;8.504;2023-11-18T05:38:20;2.90;99.90
73939;DHT22;62291;47.554;8.504;2023-11-18T05:40:51;2.90;99.90
73939;DHT22;62291;47.554;8.504;2023-11-18T05:43:26;2.90;99.90
73939;DHT22;62291;47.554;8.504;2023-11-18T05:45:58;2.90;99.90
73939;DHT22;62291;47.554;8.504;2023-11-18T05:49:03;2.90;99.90
73939;DHT22;62291;47.554;8.504;2023-11-18T05:51:33;2.90;99.90
73939;DHT22;62291;47.554;8.504;2023-11-18T05:53:58;2.90;99.90
73939;DHT22;62291;47.554;8.504;2023-11-18T05:56:25;3.00;99.90
73939;DHT22;62291;47.554;8.504;2023-11-18T05:58:52;3.00;99.90
73939;DHT22;62291;47.554;8.504;2023-11-18T06:01:20;3.00;99.90
73939;DHT22;62291;47.554;8.504;2023-11-18T06:03:46;2.90;99.90
73939;DHT22;62291;47.554;8.504;2023-11-18T06:06:15;2.90;99.90
73939;DHT22;62291;47.554;8.504;2023-11-18T06:08:42;3.00;99.90
73939;DHT22;62291;47.554;8.504;2023-11-18T06:11:12;2.90;99.90
73939;DHT22;62291;47.554;8.504;2023-11-18T06:13:46;2.90;99.90
73939;DHT22;62291;47.554;8.504;2023-11-18T06:16:13;2.90;99.90
73939;DHT22;62291;47.554;8.504;2023-11-18T06:18:43;2.80;99.90
73939;DHT22;62291;47.554;8.504;2023-11-18T06:21:17;2.80;99.90
73939;DHT22;62291;47.554;8.504;2023-11-18T06:23:44;2.80;99.90
73939;DHT22;62291;47.554;8.504;2023-11-18T06:26:11;2.80;99.90
73939;DHT22;62291;47.554;8.504;2023-11-18T06:28:41;2.80;99.90
73939;DHT22;62291;47.554;8.504;2023-11-18T06:31:07;2.80;99.90
73939;DHT22;62291;47.554;8.504;2023-11-18T06:33:41;2.80;99.90
73939;DHT22;62291;47.554;8.504;2023-11-18T06:38:39;2.80;99.90
73939;DHT22;62291;47.554;8.504;2023-11-18T06:41:06;2.80;99.90
73939;DHT22;62291;47.554;8.504;2023-11-18T06:43:36;2.90;99.90
73939;DHT22;62291;47.554;8.504;2023-11-18T06:46:23;2.90;99.90
73939;DHT22;62291;47.554;8.504;2023-11-18T06:48:55;2.90;99.90
73939;DHT22;62291;47.554;8.504;2023-11-18T06:51:25;2.90;99.90
73939;DHT22;62291;47.554;8.504;2023-11-18T06:53:53;3.00;99.90
73939;DHT22;62291;47.554;8.504;2023-11-18T06:56:31;3.00;99.90
73939;DHT22;62291;47.554;8.504;2023-11-18T06:58:57;3.00;99.90
73939;DHT22;62291;47.554;8.504;2023-11-18T07:01:23;3.10;99.90
73939;DHT22;62291;47.554;8.504;2023-11-18T07:03:49;3.10;99.90
73939;DHT22;62291;47.554;8.504;2023-11-18T07:06:19;3.10;99.90
73939;DHT22;62291;47.554;8.504;2023-11-18T07:08:49;3.10;99.90
73939;DHT22;62291;47.554;8.504;2023-11-18T07:11:16;3.20;99.90
73939;DHT22;62291;47.554;8.504;2023-11-18T07:13:43;3.20;99.90
73939;DHT22;62291;47.554;8.504;2023-11-18T07:16:08;3.20;99.90
73939;DHT22;62291;47.554;8.504;2023-11-18T07:18:38;3.20;99.90
73939;DHT22;62291;47.554;8.504;2023-11-18T07:21:04;3.30;99.90
73939;DHT22;62291;47.554;8.504;2023-11-18T07:23:34;3.30;99.90
73939;DHT22;62291;47.554;8.504;2023-11-18T07:26:00;3.30;99.90
73939;DHT22;62291;47.554;8.504;2023-11-18T07:28:26;3.20;99.90
73939;DHT22;62291;47.554;8.504;2023-11-18T07:30:52;3.00;99.90
73939;DHT22;62291;47.554;8.504;2023-11-18T07:33:20;3.20;99.90
73939;DHT22;62291;47.554;8.504;2023-11-18T07:35:46;3.20;99.90
73939;DHT22;62291;47.554;8.504;2023-11-18T07:38:14;3.40;99.90
73939;DHT22;62291;47.554;8.504;2023-11-18T07:40:40;3.50;99.90
73939;DHT22;62291;47.554;8.504;2023-11-18T07:43:11;3.60;99.90
73939;DHT22;62291;47.554;8.504;2023-11-18T07:45:38;3.60;99.90
73939;DHT22;62291;47.554;8.504;2023-11-18T07:48:05;3.70;99.90
73939;DHT22;62291;47.554;8.504;2023-11-18T07:50:35;3.70;99.90
73939;DHT22;62291;47.554;8.504;2023-11-18T07:53:01;3.80;99.90
73939;DHT22;62291;47.554;8.504;2023-11-18T07:55:27;3.90;99.90
73939;DHT22;62291;47.554;8.504;2023-11-18T07:57:54;3.80;99.90
73939;DHT22;62291;47.554;8.504;2023-11-18T08:00:19;3.80;99.90
73939;DHT22;62291;47.554;8.504;2023-11-18T08:02:46;3.80;99.90
73939;DHT22;62291;47.554;8.504;2023-11-18T08:05:11;3.70;99.90
73939;DHT22;62291;47.554;8.504;2023-11-18T08:07:42;3.70;99.90
73939;DHT22;62291;47.554;8.504;2023-11-18T08:10:09;3.70;99.90
73939;DHT22;62291;47.554;8.504;2023-11-18T08:12:39;3.70;99.90
73939;DHT22;62291;47.554;8.504;2023-11-18T08:15:06;3.70;99.90
73939;DHT22;62291;47.554;8.504;2023-11-18T08:17:32;3.90;99.90
73939;DHT22;62291;47.554;8.504;2023-11-18T08:19:59;4.10;99.90
73939;DHT22;62291;47.554;8.504;2023-11-18T08:22:25;4.20;99.90
73939;DHT22;62291;47.554;8.504;2023-11-18T08:24:51;4.30;99.90
73939;DHT22;62291;47.554;8.504;2023-11-18T08:27:17;4.40;99.90
73939;DHT22;62291;47.554;8.504;2023-11-18T08:29:43;4.50;99.90
73939;DHT22;62291;47.554;8.504;2023-11-18T08:32:08;4.60;99.90
73939;DHT22;62291;47.554;8.504;2023-11-18T08:34:35;4.70;99.90
73939;DHT22;62291;47.554;8.504;2023-11-18T08:37:04;4.70;99.90
73939;DHT22;62291;47.554;8.504;2023-11-18T08:39:30;4.80;99.90
73939;DHT22;62291;47.554;8.504;2023-11-18T08:41:56;4.70;99.90
73939;DHT22;62291;47.554;8.504;2023-11-18T08:44:22;4.70;99.90
73939;DHT22;62291;47.554;8.504;2023-11-18T08:46:50;4.70;99.90
73939;DHT22;62291;47.554;8.504;2023-11-18T08:49:20;4.80;99.90
73939;DHT22;62291;47.554;8.504;2023-11-18T08:51:50;4.80;99.90
73939;DHT22;62291;47.554;8.504;2023-11-18T08:54:22;4.80;99.90
73939;DHT22;62291;47.554;8.504;2023-11-18T08:56:51;5.00;99.90
73939;DHT22;62291;47.554;8.504;2023-11-18T08:59:21;5.20;99.90
73939;DHT22;62291;47.554;8.504;2023-11-18T09:01:53;5.30;99.90
73939;DHT22;62291;47.554;8.504;2023-11-18T09:04:28;5.40;99.90
73939;DHT22;62291;47.554;8.504;2023-11-18T09:06:54;5.50;99.90
73939;DHT22;62291;47.554;8.504;2023-11-18T09:09:23;5.50;99.90
73939;DHT22;62291;47.554;8.504;2023-11-18T09:11:56;5.50;99.90
73939;DHT22;62291;47.554;8.504;2023-11-18T09:14:24;5.40;99.90
73939;DHT22;62291;47.554;8.504;2023-11-18T09:16:53;5.30;99.90
73939;DHT22;62291;47.554;8.504;2023-11-18T09:19:25;5.20;99.90
73939;DHT22;62291;47.554;8.504;2023-11-18T09:21:50;5.20;99.90
73939;DHT22;62291;47.554;8.504;2023-11-18T09:24:20;5.20;99.90
73939;DHT22;62291;47.554;8.504;2023-11-18T09:26:46;5.20;99.90
73939;DHT22;62291;47.554;8.504;2023-11-18T09:29:16;5.40;99.90
73939;DHT22;62291;47.554;8.504;2023-11-18T09:31:47;5.50;99.90
73939;DHT22;62291;47.554;8.504;2023-11-18T09:34:18;5.60;99.90
73939;DHT22;62291;47.554;8.504;2023-11-18T09:36:55;5.60;99.90
73939;DHT22;62291;47.554;8.504;2023-11-18T09:39:21;5.50;99.90
73939;DHT22;62291;47.554;8.504;2023-11-18T09:41:57;5.50;99.90
73939;DHT22;62291;47.554;8.504;2023-11-18T09:44:24;5.60;99.90
73939;DHT22;62291;47.554;8.504;2023-11-18T09:46:56;5.70;99.90
73939;DHT22;62291;47.554;8.504;2023-11-18T09:49:32;5.80;99.90
73939;DHT22;62291;47.554;8.504;2023-11-18T09:52:05;5.90;99.90
73939;DHT22;62291;47.554;8.504;2023-11-18T09:57:40;6.10;99.90
73939;DHT22;62291;47.554;8.504;2023-11-18T10:00:11;6.10;99.90
73939;DHT22;62291;47.554;8.504;2023-11-18T10:02:52;6.20;99.90
73939;DHT22;62291;47.554;8.504;2023-11-18T10:05:22;6.30;99.90
73939;DHT22;62291;47.554;8.504;2023-11-18T10:07:52;6.30;99.90
73939;DHT22;62291;47.554;8.504;2023-11-18T10:10:19;6.20;99.90
73939;DHT22;62291;47.554;8.504;2023-11-18T10:12:50;6.20;99.90
73939;DHT22;62291;47.554;8.504;2023-11-18T10:15:24;6.20;99.90
73939;DHT22;62291;47.554;8.504;2023-11-18T10:17:51;6.30;99.90
73939;DHT22;62291;47.554;8.504;2023-11-18T10:20:48;6.30;99.90
73939;DHT22;62291;47.554;8.504;2023-11-18T10:23:18;6.40;99.90
73939;DHT22;62291;47.554;8.504;2023-11-18T10:25:55;6.50;99.90
73939;DHT22;62291;47.554;8.504;2023-11-18T10:28:33;6.50;99.90
73939;DHT22;62291;47.554;8.504;2023-11-18T10:31:01;6.50;99.90
73939;DHT22;62291;47.554;8.504;2023-11-18T10:33:39;6.60;99.90
73939;DHT22;62291;47.554;8.504;2023-11-18T10:36:20;6.60;99.90
73939;DHT22;62291;47.554;8.504;2023-11-18T10:38:49;6.70;99.90
73939;DHT22;62291;47.554;8.504;2023-11-18T10:41:18;6.90;99.90
73939;DHT22;62291;47.554;8.504;2023-11-18T10:43:44;6.90;99.90
73939;DHT22;62291;47.554;8.504;2023-11-18T10:46:12;6.90;99.90
73939;DHT22;62291;47.554;8.504;2023-11-18T10:48:45;7.10;99.90
73939;DHT22;62291;47.554;8.504;2023-11-18T10:51:17;7.10;99.90
73939;DHT22;62291;47.554;8.504;2023-11-18T10:53:47;7.20;99.90
73939;DHT22;62291;47.554;8.504;2023-11-18T10:56:25;7.20;99.90
73939;DHT22;62291;47.554;8.504;2023-11-18T10:59:05;7.20;99.90
73939;DHT22;62291;47.554;8.504;2023-11-18T11:01:38;7.20;99.90
73939;DHT22;62291;47.554;8.504;2023-11-18T11:04:10;7.20;99.90
73939;DHT22;62291;47.554;8.504;2023-11-18T11:06:44;7.30;99.90
73939;DHT22;62291;47.554;8.504;2023-11-18T11:09:19;7.10;99.90
73939;DHT22;62291;47.554;8.504;2023-11-18T11:11:52;7.20;99.90
73939;DHT22;62291;47.554;8.504;2023-11-18T11:14:21;7.30;99.90
73939;DHT22;62291;47.554;8.504;2023-11-18T11:16:52;7.40;99.90
73939;DHT22;62291;47.554;8.504;2023-11-18T11:19:38;7.50;99.90
73939;DHT22;62291;47.554;8.504;2023-11-18T11:22:10;7.40;99.90
73939;DHT22;62291;47.554;8.504;2023-11-18T11:25:02;7.30;99.90
73939;DHT22;62291;47.554;8.504;2023-11-18T11:27:56;7.30;99.90
73939;DHT22;62291;47.554;8.504;2023-11-18T11:31:14;7.50;99.90
73939;DHT22;62291;47.554;8.504;2023-11-18T11:33:23;7.50;99.90
73939;DHT22;62291;47.554;8.504;2023-11-18T11:35:56;7.50;99.90
73939;DHT22;62291;47.554;8.504;2023-11-18T11:38:25;7.70;99.90
73939;DHT22;62291;47.554;8.504;2023-11-18T11:40:54;7.60;99.90
73939;DHT22;62291;47.554;8.504;2023-11-18T11:43:21;7.70;99.90
73939;DHT22;62291;47.554;8.504;2023-11-18T11:45:52;7.60;99.90
73939;DHT22;62291;47.554;8.504;2023-11-18T11:48:22;7.60;99.90
73939;DHT22;62291;47.554;8.504;2023-11-18T11:54:11;7.80;99.90
73939;DHT22;62291;47.554;8.504;2023-11-18T11:56:44;7.60;99.90
73939;DHT22;62291;47.554;8.504;2023-11-18T12:02:25;7.80;99.90
73939;DHT22;62291;47.554;8.504;2023-11-18T12:04:55;7.70;99.90
73939;DHT22;62291;47.554;8.504;2023-11-18T12:07:25;7.70;99.90
73939;DHT22;62291;47.554;8.504;2023-11-18T12:09:59;7.70;99.90
73939;DHT22;62291;47.554;8.504;2023-11-18T12:12:27;7.70;99.90
73939;DHT22;62291;47.554;8.504;2023-11-18T12:14:57;7.60;99.90
73939;DHT22;62291;47.554;8.504;2023-11-18T12:17:26;7.60;99.90
73939;DHT22;62291;47.554;8.504;2023-11-18T12:19:54;7.50;99.90
73939;DHT22;62291;47.554;8.504;2023-11-18T12:23:04;7.60;99.90
73939;DHT22;62291;47.554;8.504;2023-11-18T12:25:39;7.70;99.90
73939;DHT22;62291;47.554;8.504;2023-11-18T12:28:10;7.60;99.90
73939;DHT22;62291;47.554;8.504;2023-11-18T12:30:44;7.50;99.90
73939;DHT22;62291;47.554;8.504;2023-11-18T12:33:18;7.50;99.90
73939;DHT22;62291;47.554;8.504;2023-11-18T12:41:08;7.60;99.90
73939;DHT22;62291;47.554;8.504;2023-11-18T12:43:48;7.60;99.90
73939;DHT22;62291;47.554;8.504;2023-11-18T12:49:03;7.70;99.90
73939;DHT22;62291;47.554;8.504;2023-11-18T12:51:32;7.70;99.90
73939;DHT22;62291;47.554;8.504;2023-11-18T12:54:02;7.60;99.90
73939;DHT22;62291;47.554;8.504;2023-11-18T12:56:32;7.50;99.90
73939;DHT22;62291;47.554;8.504;2023-11-18T12:58:58;7.30;99.90
73939;DHT22;62291;47.554;8.504;2023-11-18T13:01:26;7.30;99.90
73939;DHT22;62291;47.554;8.504;2023-11-18T13:03:53;7.30;99.90
73939;DHT22;62291;47.554;8.504;2023-11-18T13:06:18;7.30;99.90
73939;DHT22;62291;47.554;8.504;2023-11-18T13:08:44;7.30;99.90
73939;DHT22;62291;47.554;8.504;2023-11-18T13:11:11;7.30;99.90
73939;DHT22;62291;47.554;8.504;2023-11-18T13:13:42;7.30;99.90
73939;DHT22;62291;47.554;8.504;2023-11-18T13:16:08;7.30;99.90
73939;DHT22;62291;47.554;8.504;2023-11-18T13:18:45;7.40;99.90
73939;DHT22;62291;47.554;8.504;2023-11-18T13:21:18;7.40;99.90
73939;DHT22;62291;47.554;8.504;2023-11-18T13:23:49;7.50;99.90
73939;DHT22;62291;47.554;8.504;2023-11-18T13:26:18;7.40;99.90
73939;DHT22;62291;47.554;8.504;2023-11-18T13:28:46;7.40;99.90
73939;DHT22;62291;47.554;8.504;2023-11-18T13:31:12;7.40;99.90
73939;DHT22;62291;47.554;8.504;2023-11-18T13:33:47;7.50;99.90
73939;DHT22;62291;47.554;8.504;2023-11-18T13:36:14;7.60;99.90
73939;DHT22;62291;47.554;8.504;2023-11-18T13:38:41;7.60;99.90
73939;DHT22;62291;47.554;8.504;2023-11-18T13:41:09;7.60;99.90
73939;DHT22;62291;47.554;8.504;2023-11-18T13:43:42;7.60;99.90
73939;DHT22;62291;47.554;8.504;2023-11-18T13:46:12;7.60;99.90
73939;DHT22;62291;47.554;8.504;2023-11-18T13:48:39;7.50;99.90
73939;DHT22;62291;47.554;8.504;2023-11-18T13:51:12;7.50;99.90
73939;DHT22;62291;47.554;8.504;2023-11-18T13:53:39;7.60;99.90
73939;DHT22;62291;47.554;8.504;2023-11-18T13:56:07;7.60;99.90
73939;DHT22;62291;47.554;8.504;2023-11-18T13:58:35;7.50;99.90
73939;DHT22;62291;47.554;8.504;2023-11-18T14:01:08;7.50;99.90
73939;DHT22;62291;47.554;8.504;2023-11-18T14:03:37;7.50;99.90
73939;DHT22;62291;47.554;8.504;2023-11-18T14:06:09;7.50;99.90
73939;DHT22;62291;47.554;8.504;2023-11-18T14:08:41;7.40;99.90
73939;DHT22;62291;47.554;8.504;2023-11-18T14:11:07;7.50;99.90
73939;DHT22;62291;47.554;8.504;2023-11-18T14:13:35;7.60;99.90
73939;DHT22;62291;47.554;8.504;2023-11-18T14:16:01;7.70;99.90
73939;DHT22;62291;47.554;8.504;2023-11-18T14:18:27;7.70;99.90
73939;DHT22;62291;47.554;8.504;2023-11-18T14:20:56;7.80;99.90
73939;DHT22;62291;47.554;8.504;2023-11-18T14:23:22;7.80;99.90
73939;DHT22;62291;47.554;8.504;2023-11-18T14:25:49;7.90;99.90
73939;DHT22;62291;47.554;8.504;2023-11-18T14:28:15;7.90;99.90
73939;DHT22;62291;47.554;8.504;2023-11-18T14:30:40;8.00;99.90
73939;DHT22;62291;47.554;8.504;2023-11-18T14:33:07;8.10;99.90
73939;DHT22;62291;47.554;8.504;2023-11-18T14:35:34;8.10;99.90
73939;DHT22;62291;47.554;8.504;2023-11-18T14:38:00;8.00;99.90
73939;DHT22;62291;47.554;8.504;2023-11-18T14:40:29;8.00;99.90
73939;DHT22;62291;47.554;8.504;2023-11-18T14:42:55;8.00;99.90
73939;DHT22;62291;47.554;8.504;2023-11-18T14:45:21;8.00;99.90
73939;DHT22;62291;47.554;8.504;2023-11-18T14:47:47;8.00;99.90
73939;DHT22;62291;47.554;8.504;2023-11-18T14:50:14;8.00;99.90
73939;DHT22;62291;47.554;8.504;2023-11-18T14:52:47;8.00;99.90
73939;DHT22;62291;47.554;8.504;2023-11-18T14:55:16;7.90;99.90
73939;DHT22;62291;47.554;8.504;2023-11-18T14:57:43;7.80;99.90
73939;DHT22;62291;47.554;8.504;2023-11-18T15:00:11;7.80;99.90
73939;DHT22;62291;47.554;8.504;2023-11-18T15:02:57;7.80;99.90
73939;DHT22;62291;47.554;8.504;2023-11-18T15:05:23;7.70;99.90
73939;DHT22;62291;47.554;8.504;2023-11-18T15:07:51;7.70;99.90
73939;DHT22;62291;47.554;8.504;2023-11-18T15:10:20;7.60;99.90
73939;DHT22;62291;47.554;8.504;2023-11-18T15:12:53;7.70;99.90
73939;DHT22;62291;47.554;8.504;2023-11-18T15:15:27;7.60;99.90
73939;DHT22;62291;47.554;8.504;2023-11-18T15:17:58;7.60;99.90
73939;DHT22;62291;47.554;8.504;2023-11-18T15:20:25;7.70;99.90
73939;DHT22;62291;47.554;8.504;2023-11-18T15:22:51;7.70;99.90
73939;DHT22;62291;47.554;8.504;2023-11-18T15:25:17;7.60;99.90
73939;DHT22;62291;47.554;8.504;2023-11-18T15:27:46;7.50;99.90
73939;DHT22;62291;47.554;8.504;2023-11-18T15:30:13;7.50;99.90
73939;DHT22;62291;47.554;8.504;2023-11-18T15:32:40;7.50;99.90
73939;DHT22;62291;47.554;8.504;2023-11-18T15:35:07;7.50;99.90
73939;DHT22;62291;47.554;8.504;2023-11-18T15:37:40;7.50;99.90
73939;DHT22;62291;47.554;8.504;2023-11-18T15:40:12;7.50;99.90
73939;DHT22;62291;47.554;8.504;2023-11-18T15:42:41;7.50;99.90
73939;DHT22;62291;47.554;8.504;2023-11-18T15:45:14;7.60;99.90
73939;DHT22;62291;47.554;8.504;2023-11-18T15:47:41;7.60;99.90
73939;DHT22;62291;47.554;8.504;2023-11-18T15:50:12;7.50;99.90
73939;DHT22;62291;47.554;8.504;2023-11-18T15:52:41;7.40;99.90
73939;DHT22;62291;47.554;8.504;2023-11-18T15:55:07;7.30;99.90
73939;DHT22;62291;47.554;8.504;2023-11-18T15:57:43;7.30;99.90
73939;DHT22;62291;47.554;8.504;2023-11-18T16:00:10;7.20;99.90
73939;DHT22;62291;47.554;8.504;2023-11-18T16:02:45;7.20;99.90
73939;DHT22;62291;47.554;8.504;2023-11-18T16:05:15;7.20;99.90
73939;DHT22;62291;47.554;8.504;2023-11-18T16:07:44;7.20;99.90
73939;DHT22;62291;47.554;8.504;2023-11-18T16:10:11;7.10;99.90
73939;DHT22;62291;47.554;8.504;2023-11-18T16:12:44;7.10;99.90
73939;DHT22;62291;47.554;8.504;2023-11-18T16:15:10;7.10;99.90
73939;DHT22;62291;47.554;8.504;2023-11-18T16:17:35;7.20;99.90